createdAt,value
2023-03-31T00:10:29.651Z,74.4
2023-03-31T00:25:40.350Z,74.4
2023-03-31T00:40:54.296Z,74.7
2023-03-31T00:56:05.441Z,74.9
2023-03-31T01:11:15.413Z,74.9
2023-03-31T01:26:24.554Z,74.9
2023-03-31T01:41:34.160Z,75
2023-03-31T01:56:43.704Z,75.2
2023-03-31T02:11:53.087Z,75.3
2023-03-31T02:27:02.980Z,75.4
2023-03-31T02:42:12.077Z,75.4
2023-03-31T02:57:22.039Z,75.4
2023-03-31T03:12:32.225Z,75.6
2023-03-31T03:27:42.155Z,75.5
2023-03-31T03:42:51.484Z,75.5
2023-03-31T03:58:00.943Z,75.6
2023-03-31T04:13:10.731Z,75.6
2023-03-31T04:28:20.760Z,75.7
2023-03-31T04:43:30.790Z,75.7
2023-03-31T04:58:40.048Z,75.8
2023-03-31T05:13:49.599Z,75.4
2023-03-31T05:28:59.382Z,75.8
2023-03-31T05:44:08.898Z,75.8
2023-03-31T05:59:18.356Z,76
2023-03-31T06:14:28.252Z,76.1
2023-03-31T06:29:38.541Z,76.2
2023-03-31T06:44:48.313Z,76.2
2023-03-31T06:59:57.951Z,76.2
2023-03-31T07:15:07.508Z,76.3
2023-03-31T07:30:17.119Z,76.7
2023-03-31T07:45:27.126Z,76.4
2023-03-31T08:00:36.340Z,76.6
2023-03-31T08:15:46.624Z,76.5
2023-03-31T08:30:56.626Z,76.4
2023-03-31T08:46:07.504Z,76.2
2023-03-31T09:01:18.270Z,76.3
2023-03-31T09:16:28.266Z,76.4
2023-03-31T09:31:41.200Z,76.7
2023-03-31T09:46:51.789Z,76.9
2023-03-31T10:02:02.664Z,77
2023-03-31T10:17:12.338Z,77
2023-03-31T10:32:22.123Z,76.9
2023-03-31T10:47:31.898Z,77.1
2023-03-31T11:02:41.926Z,77.3
2023-03-31T11:17:51.854Z,77.3
2023-03-31T11:33:01.469Z,77.4
2023-03-31T11:48:11.586Z,77.6
2023-03-31T12:03:21.838Z,77.5
2023-03-31T12:18:31.662Z,77.2
2023-03-31T12:33:41.802Z,77
2023-03-31T12:48:55.832Z,76.8
2023-03-31T13:04:06.114Z,76.2
2023-03-31T13:19:17.271Z,76.2
2023-03-31T13:34:27.455Z,77.1
2023-03-31T13:49:36.876Z,77.4
2023-03-31T14:04:46.639Z,77.3
2023-03-31T14:19:56.750Z,76.7
2023-03-31T14:35:06.808Z,74.9
2023-03-31T14:50:16.941Z,74.6
2023-03-31T15:05:25.800Z,76.1
2023-03-31T15:20:35.977Z,77.5
2023-03-31T15:35:44.889Z,78.2
2023-03-31T15:50:53.993Z,78.4
2023-03-31T16:06:03.425Z,78.5
2023-03-31T16:21:12.722Z,78.8
2023-03-31T16:36:22.764Z,78.7
2023-03-31T16:51:32.575Z,78.8
2023-03-31T17:06:42.932Z,78.6
2023-03-31T17:21:52.456Z,78.8
2023-03-31T17:37:02.815Z,79.2
2023-03-31T17:52:12.698Z,79.4
2023-03-31T18:07:21.841Z,79.5
2023-03-31T18:22:31.196Z,79.6
2023-03-31T18:37:40.629Z,79.7
2023-03-31T18:52:50.232Z,79.8
2023-03-31T19:07:59.574Z,79.7
2023-03-31T19:23:09.898Z,79.9
2023-03-31T19:38:19.740Z,80
2023-03-31T19:53:29.195Z,80
2023-03-31T20:08:38.503Z,80
2023-03-31T20:23:48.063Z,80.1
2023-03-31T20:38:57.239Z,80.1
2023-03-31T20:54:07.862Z,80.1
2023-03-31T21:09:17.664Z,80.1
2023-03-31T21:24:27.028Z,80.2
2023-03-31T21:39:36.983Z,80.2
2023-03-31T21:54:46.218Z,80.3
2023-03-31T22:09:55.780Z,80.4
2023-03-31T22:25:05.438Z,80.9
2023-03-31T22:40:15.416Z,80.7
2023-03-31T22:55:24.804Z,80.8
2023-03-31T23:10:34.352Z,80.7
2023-03-31T23:25:43.704Z,80.6
2023-03-31T23:40:53.142Z,80.9
2023-03-31T23:56:03.060Z,81
